Time;durP1;ratioP1;P1;durP2;ratioP2;P2;SDS_P1;SDS_P2;PMS_P1;PMS_P2;Temp;Humidity;BMP_temperature;BMP_pressure;BME280_temperature;BME280_humidity;BME280_pressure;Samples;Min_cycle;Max_cycle;Signal;HPM_P1;HPM_P2
2021/01/11 00:01:59;;;;;;;42.28;21.75;;;4.10;99.90;;;;;;5084347;28;20060;-67
2021/01/11 00:04:25;;;;;;;52.15;26.00;;;4.10;99.90;;;;;;5108217;28;20030;-67
2021/01/11 00:06:50;;;;;;;43.35;23.55;;;4.20;99.90;;;;;;5107966;27;20040;-68
2021/01/11 00:09:17;;;;;;;41.20;22.20;;;4.20;99.90;;;;;;5109697;28;20186;-68
2021/01/11 00:11:43;;;;;;;47.60;23.90;;;4.20;99.90;;;;;;5106617;28;20161;-66
2021/01/11 00:14:10;;;;;;;47.95;23.48;;;4.20;99.90;;;;;;5108756;28;20054;-66
2021/01/11 00:16:37;;;;;;;47.60;24.15;;;4.20;99.90;;;;;;5109126;28;20032;-67
2021/01/11 00:19:03;;;;;;;47.45;24.23;;;4.30;99.90;;;;;;5109000;28;20050;-67
2021/01/11 00:21:29;;;;;;;45.47;22.92;;;4.20;99.90;;;;;;5086980;28;20024;-67
2021/01/11 00:23:55;;;;;;;46.35;23.30;;;4.30;99.90;;;;;;5089171;28;20028;-68
2021/01/11 00:26:20;;;;;;;48.78;26.60;;;4.30;99.90;;;;;;5102644;28;20020;-65
2021/01/11 00:28:46;;;;;;;43.28;23.42;;;4.30;99.90;;;;;;5107848;28;20485;-67
2021/01/11 00:31:12;;;;;;;47.03;24.67;;;4.30;99.90;;;;;;5107239;28;20032;-65
2021/01/11 00:33:39;;;;;;;46.95;24.10;;;4.20;99.90;;;;;;5104236;28;20019;-65
2021/01/11 00:36:05;;;;;;;44.95;24.10;;;4.20;99.90;;;;;;5100793;28;20043;-66
2021/01/11 00:38:31;;;;;;;45.85;24.08;;;4.20;99.90;;;;;;5106342;27;20719;-66
2021/01/11 00:40:57;;;;;;;45.33;23.13;;;4.20;99.90;;;;;;5108326;27;20028;-68
2021/01/11 00:43:25;;;;;;;48.03;23.95;;;4.20;99.90;;;;;;5114925;27;20081;-67
2021/01/11 00:45:51;;;;;;;54.03;24.20;;;4.20;99.90;;;;;;5108707;28;20546;-68
2021/01/11 00:48:16;;;;;;;53.20;26.20;;;4.20;99.90;;;;;;5096360;28;20020;-67
2021/01/11 00:50:42;;;;;;;50.70;25.50;;;4.20;99.90;;;;;;5101381;28;20028;-65
2021/01/11 00:53:08;;;;;;;45.60;25.25;;;4.10;99.90;;;;;;5105752;28;20076;-67
2021/01/11 00:55:33;;;;;;;52.10;26.15;;;4.10;99.90;;;;;;5108703;28;20067;-65
2021/01/11 00:57:59;;;;;;;54.65;26.90;;;4.10;99.90;;;;;;5105561;28;20023;-66
2021/01/11 01:00:25;;;;;;;52.15;25.70;;;4.10;99.90;;;;;;5105355;28;20560;-67
2021/01/11 01:02:50;;;;;;;48.45;26.65;;;4.10;99.90;;;;;;5102343;28;20031;-67
2021/01/11 01:05:16;;;;;;;49.17;25.55;;;4.10;99.90;;;;;;5103055;28;20058;-67
2021/01/11 01:07:43;;;;;;;59.08;29.42;;;4.10;99.90;;;;;;5099802;28;20034;-66
2021/01/11 01:10:12;;;;;;;55.03;28.08;;;4.10;99.90;;;;;;5108433;28;20027;-66
2021/01/11 01:12:39;;;;;;;60.60;29.00;;;4.10;99.90;;;;;;5108406;28;20080;-66
2021/01/11 01:15:06;;;;;;;60.42;29.13;;;4.00;99.90;;;;;;5097589;28;20142;-67
2021/01/11 01:17:34;;;;;;;59.65;27.63;;;4.00;99.90;;;;;;5108733;28;20067;-70
2021/01/11 01:20:00;;;;;;;60.17;30.52;;;4.00;99.90;;;;;;5106201;28;20031;-67
2021/01/11 01:22:25;;;;;;;60.65;29.10;;;4.00;99.90;;;;;;5101547;28;20111;-67
2021/01/11 01:24:50;;;;;;;57.42;27.55;;;4.00;99.90;;;;;;5112951;27;20106;-66
2021/01/11 01:27:16;;;;;;;57.72;27.75;;;4.00;99.90;;;;;;5114318;28;20028;-67
2021/01/11 01:29:41;;;;;;;60.25;28.63;;;4.00;99.90;;;;;;5112451;27;20028;-65
2021/01/11 01:32:10;;;;;;;60.58;29.10;;;4.00;99.90;;;;;;5119282;27;20035;-65
2021/01/11 01:34:35;;;;;;;55.58;29.05;;;4.00;99.90;;;;;;5103497;27;20063;-67
2021/01/11 01:37:01;;;;;;;59.25;29.20;;;4.00;99.90;;;;;;5104604;27;20083;-67
2021/01/11 01:39:26;;;;;;;63.65;29.67;;;4.00;99.90;;;;;;5101172;28;20561;-64
2021/01/11 01:41:52;;;;;;;60.97;29.67;;;4.00;99.90;;;;;;5110634;27;20039;-66
2021/01/11 01:44:18;;;;;;;67.93;29.75;;;4.00;99.90;;;;;;5098595;27;20043;-66
2021/01/11 01:46:44;;;;;;;59.97;28.83;;;4.00;99.90;;;;;;5112202;28;20030;-65
2021/01/11 01:49:09;;;;;;;59.72;28.55;;;4.00;99.90;;;;;;5111089;28;20023;-67
2021/01/11 01:51:36;;;;;;;54.63;30.15;;;4.00;99.90;;;;;;5111197;28;20015;-66
2021/01/11 01:54:02;;;;;;;64.85;30.40;;;4.10;99.90;;;;;;5110738;28;20031;-65
2021/01/11 01:56:28;;;;;;;67.28;31.27;;;4.10;99.90;;;;;;5105698;28;20043;-65
2021/01/11 01:58:55;;;;;;;63.45;30.38;;;4.00;99.90;;;;;;5109785;28;20095;-66
2021/01/11 02:01:21;;;;;;;64.65;31.27;;;4.00;99.90;;;;;;5106881;28;20030;-65
2021/01/11 02:03:48;;;;;;;66.72;31.83;;;4.00;99.90;;;;;;5103267;28;20024;-65
2021/01/11 02:06:13;;;;;;;67.25;31.38;;;3.90;99.90;;;;;;5088865;28;20050;-66
2021/01/11 02:08:51;;;;;;;72.97;31.05;;;4.00;99.90;;;;;;5089668;28;20103;-64
2021/01/11 02:11:28;;;;;;;64.32;30.27;;;4.00;99.90;;;;;;5090958;28;20127;-66
2021/01/11 02:14:18;;;;;;;62.67;31.42;;;4.00;99.90;;;;;;5083314;28;20084;-66
2021/01/11 02:17:05;;;;;;;63.28;30.73;;;4.00;99.90;;;;;;5070888;28;20446;-67
2021/01/11 02:19:44;;;;;;;74.60;33.63;;;4.00;99.90;;;;;;5092297;28;20146;-67
2021/01/11 02:22:21;;;;;;;72.03;33.35;;;3.90;99.90;;;;;;5089264;28;20729;-65
2021/01/11 02:25:18;;;;;;;68.63;32.13;;;4.00;99.90;;;;;;5081966;28;20039;-68
2021/01/11 02:27:58;;;;;;;72.80;33.22;;;4.00;99.90;;;;;;5082317;28;20481;-65
2021/01/11 02:30:31;;;;;;;77.05;34.05;;;4.00;99.90;;;;;;5091486;28;20108;-65
2021/01/11 02:32:57;;;;;;;72.50;32.35;;;4.00;99.90;;;;;;5090793;28;20020;-67
2021/01/11 02:35:25;;;;;;;80.10;34.78;;;3.90;99.90;;;;;;5090398;28;20020;-66
2021/01/11 02:37:52;;;;;;;76.75;35.25;;;3.90;99.90;;;;;;5089969;28;20422;-67
2021/01/11 02:40:17;;;;;;;79.47;33.90;;;3.90;99.90;;;;;;5092785;28;20015;-66
2021/01/11 02:42:43;;;;;;;76.93;35.75;;;3.90;99.90;;;;;;5084749;28;20016;-66
2021/01/11 02:45:10;;;;;;;85.85;36.53;;;3.90;99.90;;;;;;5085273;28;20031;-66
2021/01/11 02:47:50;;;;;;;90.65;37.88;;;3.90;99.90;;;;;;5076647;28;20114;-64
2021/01/11 02:50:22;;;;;;;83.22;36.55;;;3.80;99.90;;;;;;5096768;28;20447;-65
2021/01/11 02:53:06;;;;;;;89.90;35.40;;;3.90;99.90;;;;;;5095934;28;20465;-65
2021/01/11 02:55:47;;;;;;;88.47;35.88;;;3.90;99.90;;;;;;5099638;28;20380;-65
2021/01/11 02:58:24;;;;;;;90.28;35.35;;;3.90;99.90;;;;;;5096862;28;20099;-65
2021/01/11 03:00:50;;;;;;;101.43;36.88;;;3.90;99.90;;;;;;5095613;28;20028;-64
2021/01/11 03:03:18;;;;;;;78.70;34.00;;;3.90;99.90;;;;;;5089683;28;20020;-66
2021/01/11 03:05:44;;;;;;;83.22;33.38;;;4.00;99.90;;;;;;5097925;28;20122;-68
2021/01/11 03:08:10;;;;;;;99.35;37.30;;;4.00;99.90;;;;;;5109322;28;20153;-67
2021/01/11 03:10:36;;;;;;;89.72;34.47;;;4.00;99.90;;;;;;5111347;27;20049;-66
2021/01/11 03:13:02;;;;;;;93.28;35.97;;;4.00;99.90;;;;;;5103575;28;20103;-64
2021/01/11 03:15:28;;;;;;;91.40;34.67;;;4.00;99.90;;;;;;5090835;28;20131;-66
2021/01/11 03:17:54;;;;;;;105.95;37.15;;;4.00;99.90;;;;;;5108031;28;20659;-65
2021/01/11 03:20:21;;;;;;;108.22;39.10;;;4.00;99.90;;;;;;5108546;28;20115;-65
2021/01/11 03:22:47;;;;;;;108.25;37.63;;;4.00;99.90;;;;;;5104273;28;20019;-66
2021/01/11 03:25:12;;;;;;;108.30;37.38;;;3.90;99.90;;;;;;5116002;27;20031;-65
2021/01/11 03:27:38;;;;;;;106.55;35.80;;;3.90;99.90;;;;;;5109743;27;20019;-66
2021/01/11 03:30:05;;;;;;;112.43;38.35;;;3.90;99.90;;;;;;5109764;28;20051;-67
2021/01/11 03:32:30;;;;;;;107.32;36.50;;;3.90;99.90;;;;;;5108628;28;20107;-66
2021/01/11 03:34:56;;;;;;;110.95;37.25;;;3.90;99.90;;;;;;5108908;27;20111;-66
2021/01/11 03:37:23;;;;;;;102.85;36.30;;;3.90;99.90;;;;;;5119988;27;20027;-65
2021/01/11 03:39:49;;;;;;;102.40;35.75;;;3.90;99.90;;;;;;5114223;27;20066;-65
2021/01/11 03:42:15;;;;;;;109.18;37.30;;;3.90;99.90;;;;;;5115895;27;20483;-66
2021/01/11 03:44:41;;;;;;;96.38;34.10;;;3.90;99.90;;;;;;5104436;28;20026;-65
2021/01/11 03:47:06;;;;;;;97.47;36.25;;;4.00;99.90;;;;;;5101803;28;20043;-65
2021/01/11 03:49:32;;;;;;;106.65;36.08;;;4.00;99.90;;;;;;5103313;28;21509;-67
2021/01/11 03:52:01;;;;;;;104.65;36.65;;;4.00;99.90;;;;;;5113339;27;20024;-66
2021/01/11 03:54:29;;;;;;;96.13;35.30;;;4.00;99.90;;;;;;5130139;27;20052;-67
2021/01/11 03:56:55;;;;;;;99.18;36.05;;;4.00;99.90;;;;;;5096445;27;20065;-66
2021/01/11 03:59:20;;;;;;;99.95;37.13;;;4.00;99.90;;;;;;5116262;27;20020;-67
2021/01/11 04:01:46;;;;;;;99.05;37.25;;;4.10;99.90;;;;;;5119859;27;20644;-68
2021/01/11 04:04:12;;;;;;;103.03;35.47;;;4.10;99.90;;;;;;5127796;27;20019;-65
2021/01/11 04:06:37;;;;;;;80.38;33.30;;;4.10;99.90;;;;;;5100581;27;20044;-65
2021/01/11 04:09:05;;;;;;;92.80;35.15;;;4.10;99.90;;;;;;5103842;28;20034;-66
2021/01/11 04:11:30;;;;;;;91.60;34.97;;;4.10;99.90;;;;;;5099426;28;20400;-65
2021/01/11 04:13:56;;;;;;;84.78;33.55;;;4.10;99.90;;;;;;5061436;28;20032;-67
2021/01/11 04:16:21;;;;;;;97.57;35.85;;;4.10;99.90;;;;;;5087653;28;20485;-65
2021/01/11 04:18:49;;;;;;;83.20;33.90;;;4.20;99.90;;;;;;5094355;28;20034;-67
2021/01/11 04:21:16;;;;;;;78.10;33.88;;;4.10;99.90;;;;;;5104985;28;20065;-65
2021/01/11 04:23:42;;;;;;;85.78;33.85;;;4.20;99.90;;;;;;5107137;28;20031;-66
2021/01/11 04:26:08;;;;;;;80.65;34.60;;;4.20;99.90;;;;;;5106723;28;20027;-69
2021/01/11 04:28:34;;;;;;;77.93;33.88;;;4.20;99.90;;;;;;5096953;28;20024;-69
2021/01/11 04:31:00;;;;;;;74.75;32.70;;;4.30;99.90;;;;;;5097159;28;20042;-67
2021/01/11 04:33:25;;;;;;;74.40;32.53;;;4.30;99.90;;;;;;5088214;28;20039;-66
2021/01/11 04:35:51;;;;;;;71.38;32.25;;;4.20;99.90;;;;;;5089771;28;20032;-67
2021/01/11 04:38:16;;;;;;;71.85;32.63;;;4.30;99.90;;;;;;5075943;28;20020;-68
2021/01/11 04:40:42;;;;;;;76.00;34.75;;;4.30;99.90;;;;;;5087750;28;20032;-67
2021/01/11 04:43:15;;;;;;;71.72;32.95;;;4.30;99.90;;;;;;5096904;28;20030;-68
2021/01/11 04:45:41;;;;;;;83.18;35.80;;;4.30;99.90;;;;;;5097769;28;20028;-67
2021/01/11 04:48:06;;;;;;;77.80;34.55;;;4.30;99.90;;;;;;5069683;28;20051;-66
2021/01/11 04:50:32;;;;;;;82.10;36.58;;;4.30;99.90;;;;;;5088898;28;20062;-67
2021/01/11 04:52:59;;;;;;;81.90;35.40;;;4.30;99.90;;;;;;5100381;28;20031;-66
2021/01/11 04:55:25;;;;;;;92.82;38.70;;;4.30;99.90;;;;;;5071159;28;20085;-66
2021/01/11 04:57:58;;;;;;;79.13;38.28;;;4.30;99.90;;;;;;5085082;28;20031;-67
2021/01/11 05:00:28;;;;;;;92.28;39.65;;;4.30;99.90;;;;;;5089975;28;20024;-67
2021/01/11 05:03:10;;;;;;;90.95;40.90;;;4.20;99.90;;;;;;5089652;28;20050;-67
2021/01/11 05:05:39;;;;;;;92.22;38.88;;;4.20;99.90;;;;;;5087489;28;20556;-67
2021/01/11 05:08:05;;;;;;;93.10;40.05;;;4.20;99.90;;;;;;5105054;28;20073;-67
2021/01/11 05:10:36;;;;;;;86.65;39.08;;;4.20;99.90;;;;;;5109304;27;20022;-66
2021/01/11 05:13:03;;;;;;;89.75;39.00;;;4.20;99.90;;;;;;5108739;28;20062;-66
2021/01/11 05:15:33;;;;;;;85.82;38.45;;;4.20;99.90;;;;;;5115132;27;20507;-65
2021/01/11 05:17:59;;;;;;;72.90;35.03;;;4.20;99.90;;;;;;5105723;28;20026;-68
2021/01/11 05:20:33;;;;;;;80.35;37.67;;;4.20;99.90;;;;;;5102585;28;20028;-67
2021/01/11 05:23:08;;;;;;;75.40;35.65;;;4.10;99.90;;;;;;5096615;28;20732;-67
2021/01/11 05:25:36;;;;;;;70.68;32.35;;;4.20;99.90;;;;;;5108079;28;20020;-67
2021/01/11 05:28:06;;;;;;;67.72;32.42;;;4.20;99.90;;;;;;5109820;28;20116;-69
2021/01/11 05:30:35;;;;;;;73.25;34.47;;;4.20;99.90;;;;;;5107934;28;20022;-67
2021/01/11 05:33:01;;;;;;;64.88;31.60;;;4.20;99.90;;;;;;5106725;28;20919;-68
2021/01/11 05:35:27;;;;;;;61.55;30.58;;;4.20;99.90;;;;;;5106003;28;20057;-68
2021/01/11 05:37:59;;;;;;;58.72;29.92;;;4.20;99.90;;;;;;5093940;28;20472;-68
2021/01/11 05:40:26;;;;;;;56.25;28.52;;;4.20;99.90;;;;;;5108123;28;20387;-68
2021/01/11 05:42:53;;;;;;;52.78;27.98;;;4.20;99.90;;;;;;5107086;28;20052;-68
2021/01/11 05:45:28;;;;;;;45.63;25.90;;;4.20;99.90;;;;;;5112874;28;20119;-66
2021/01/11 05:48:04;;;;;;;48.90;26.35;;;4.20;99.90;;;;;;5120214;28;20079;-67
2021/01/11 05:50:41;;;;;;;50.17;25.98;;;4.20;99.90;;;;;;5105573;28;20106;-69
2021/01/11 05:53:26;;;;;;;51.08;26.70;;;4.20;99.90;;;;;;5122259;28;20031;-69
2021/01/11 05:55:53;;;;;;;46.72;23.48;;;4.20;99.90;;;;;;5086659;28;20032;-67
2021/01/11 05:58:20;;;;;;;53.35;26.00;;;4.20;99.90;;;;;;5114278;28;20157;-68
2021/01/11 06:00:46;;;;;;;41.92;23.63;;;4.20;99.90;;;;;;5108822;28;20041;-68
2021/01/11 06:03:12;;;;;;;43.22;23.85;;;4.20;99.90;;;;;;5104969;28;20023;-67
2021/01/11 06:05:39;;;;;;;44.20;23.58;;;4.30;99.90;;;;;;5110064;27;20113;-67
2021/01/11 06:08:16;;;;;;;41.83;22.23;;;4.20;99.90;;;;;;5113288;27;20035;-67
2021/01/11 06:10:44;;;;;;;44.35;24.02;;;4.20;99.90;;;;;;5112540;28;20016;-68
2021/01/11 06:13:10;;;;;;;39.70;21.80;;;4.20;99.90;;;;;;5118864;27;20027;-66
2021/01/11 06:15:39;;;;;;;42.70;22.17;;;4.20;99.90;;;;;;5122667;27;20039;-67
2021/01/11 06:18:12;;;;;;;39.80;21.23;;;4.30;99.90;;;;;;5122039;27;20533;-68
2021/01/11 06:20:48;;;;;;;36.00;20.42;;;4.20;99.90;;;;;;5125666;27;20033;-68
2021/01/11 06:23:40;;;;;;;46.22;23.98;;;4.20;99.90;;;;;;5120969;27;20023;-67
2021/01/11 06:26:25;;;;;;;38.20;22.17;;;4.20;99.90;;;;;;5117447;27;20547;-66
2021/01/11 06:28:51;;;;;;;38.65;22.65;;;4.20;99.90;;;;;;5120565;27;20015;-64
2021/01/11 06:31:17;;;;;;;38.40;23.90;;;4.20;99.90;;;;;;5112214;27;20059;-67
2021/01/11 06:33:43;;;;;;;41.20;23.38;;;4.10;99.90;;;;;;5112580;27;20138;-68
2021/01/11 06:36:22;;;;;;;41.35;23.30;;;4.10;99.90;;;;;;5121309;27;20467;-69
2021/01/11 06:38:49;;;;;;;51.42;23.70;;;4.20;99.90;;;;;;5099910;27;20047;-67
2021/01/11 06:41:17;;;;;;;46.50;24.20;;;4.10;99.90;;;;;;5117812;27;20027;-67
2021/01/11 06:43:48;;;;;;;45.08;23.67;;;4.10;99.90;;;;;;5123431;27;20038;-67
2021/01/11 06:46:42;;;;;;;46.67;24.60;;;4.10;99.90;;;;;;5119742;27;20031;-67
2021/01/11 06:49:11;;;;;;;46.08;25.60;;;4.10;99.90;;;;;;5096760;28;20484;-67
2021/01/11 06:51:39;;;;;;;47.15;26.17;;;4.10;99.90;;;;;;5109851;27;20027;-67
2021/01/11 06:54:09;;;;;;;48.50;25.20;;;4.10;99.90;;;;;;5114848;27;20199;-68
2021/01/11 06:56:37;;;;;;;50.28;26.50;;;4.20;99.90;;;;;;5123083;27;20042;-69
2021/01/11 06:59:16;;;;;;;50.92;25.48;;;4.20;99.90;;;;;;5117782;27;20089;-67
2021/01/11 07:01:42;;;;;;;47.83;24.88;;;4.10;99.90;;;;;;5119244;27;20388;-67
2021/01/11 07:04:09;;;;;;;49.83;24.85;;;4.10;99.90;;;;;;5123023;27;20011;-68
2021/01/11 07:06:39;;;;;;;42.95;23.98;;;4.10;99.90;;;;;;5123577;27;20089;-67
2021/01/11 07:09:12;;;;;;;48.67;24.13;;;4.10;99.90;;;;;;5112626;27;20448;-70
2021/01/11 07:11:44;;;;;;;49.97;25.52;;;4.10;99.90;;;;;;5116964;27;20038;-67
2021/01/11 07:14:11;;;;;;;56.83;27.17;;;4.10;99.90;;;;;;5110480;28;20322;-68
2021/01/11 07:16:41;;;;;;;46.35;24.02;;;4.10;99.90;;;;;;5110934;28;20114;-68
2021/01/11 07:19:07;;;;;;;50.30;25.88;;;4.10;99.90;;;;;;5111088;28;20031;-67
2021/01/11 07:21:35;;;;;;;45.55;24.15;;;4.10;99.90;;;;;;5130557;27;20025;-68
2021/01/11 07:24:04;;;;;;;48.75;25.27;;;4.20;99.90;;;;;;5130649;27;20023;-68
2021/01/11 07:26:31;;;;;;;42.13;23.35;;;4.20;99.90;;;;;;5106949;27;20570;-68
2021/01/11 07:29:07;;;;;;;39.38;23.13;;;4.20;99.90;;;;;;5100527;28;20145;-68
2021/01/11 07:31:44;;;;;;;47.22;23.25;;;4.20;99.90;;;;;;5110284;28;20020;-67
2021/01/11 07:34:14;;;;;;;41.88;22.42;;;4.20;99.90;;;;;;5111915;27;20027;-69
2021/01/11 07:36:45;;;;;;;46.67;22.77;;;4.20;99.90;;;;;;5096936;28;20095;-69
2021/01/11 07:39:31;;;;;;;37.20;21.15;;;4.20;99.90;;;;;;5110772;28;20027;-71
2021/01/11 07:42:02;;;;;;;31.90;20.05;;;4.20;99.90;;;;;;5098275;28;20401;-69
2021/01/11 07:44:31;;;;;;;38.50;20.50;;;4.30;99.90;;;;;;5109270;27;20038;-67
2021/01/11 07:47:09;;;;;;;33.15;18.88;;;4.30;99.90;;;;;;5128580;27;20011;-68
2021/01/11 07:49:37;;;;;;;32.95;17.85;;;4.30;99.90;;;;;;5127804;27;20498;-68
2021/01/11 07:52:09;;;;;;;34.63;18.20;;;4.30;99.90;;;;;;5114685;27;20050;-67
2021/01/11 07:54:35;;;;;;;35.13;17.80;;;4.30;99.90;;;;;;5129048;27;20122;-67
2021/01/11 07:57:02;;;;;;;30.05;16.88;;;4.30;99.90;;;;;;5127087;27;20495;-67
2021/01/11 07:59:27;;;;;;;35.38;17.92;;;4.40;99.90;;;;;;5123998;27;20107;-69
2021/01/11 08:01:53;;;;;;;27.83;16.73;;;4.40;99.90;;;;;;5112242;27;20444;-68
2021/01/11 08:04:19;;;;;;;28.80;17.13;;;4.40;99.90;;;;;;5130003;27;20075;-67
2021/01/11 08:06:49;;;;;;;29.42;16.40;;;4.40;99.90;;;;;;5126806;27;20435;-67
2021/01/11 08:09:16;;;;;;;31.73;15.77;;;4.50;99.90;;;;;;5131204;27;20019;-67
2021/01/11 08:11:42;;;;;;;25.77;14.70;;;4.50;99.90;;;;;;5119395;27;20030;-68
2021/01/11 08:14:08;;;;;;;28.15;15.05;;;4.50;99.90;;;;;;5109217;28;20020;-67
2021/01/11 08:16:39;;;;;;;24.67;14.75;;;4.50;99.90;;;;;;5109613;28;20118;-69
2021/01/11 08:19:10;;;;;;;23.88;13.57;;;4.50;99.90;;;;;;5109632;28;20028;-67
2021/01/11 08:21:36;;;;;;;25.98;15.07;;;4.60;99.90;;;;;;5109322;28;20027;-67
2021/01/11 08:24:09;;;;;;;27.05;14.77;;;4.60;99.90;;;;;;5101812;27;20492;-67
2021/01/11 08:27:05;;;;;;;23.95;14.82;;;4.60;99.90;;;;;;5109779;27;20019;-67
2021/01/11 08:29:37;;;;;;;22.33;13.10;;;4.60;99.90;;;;;;5123228;27;20072;-68
2021/01/11 08:32:09;;;;;;;24.83;13.23;;;4.60;99.90;;;;;;5105560;27;20023;-66
2021/01/11 08:34:35;;;;;;;20.60;11.93;;;4.60;99.90;;;;;;5112776;27;20186;-68
2021/01/11 08:37:17;;;;;;;26.88;14.98;;;4.60;99.90;;;;;;5108939;28;20174;-67
2021/01/11 08:40:17;;;;;;;20.35;13.40;;;4.60;99.90;;;;;;5119658;27;20019;-69
2021/01/11 08:42:43;;;;;;;24.13;13.23;;;4.60;99.90;;;;;;5114018;27;20039;-67
2021/01/11 08:45:34;;;;;;;24.88;14.57;;;4.70;99.90;;;;;;5121448;27;20012;-66
2021/01/11 08:48:01;;;;;;;22.88;13.73;;;4.60;99.90;;;;;;5109241;27;20424;-66
2021/01/11 08:50:31;;;;;;;21.60;12.75;;;4.70;99.90;;;;;;5117450;27;20443;-67
2021/01/11 08:52:57;;;;;;;23.58;13.52;;;4.70;99.90;;;;;;5116354;27;20460;-67
2021/01/11 08:55:23;;;;;;;19.48;12.45;;;4.70;99.90;;;;;;5109658;28;20100;-68
2021/01/11 08:58:01;;;;;;;23.67;13.20;;;4.70;99.90;;;;;;5121833;27;20488;-66
2021/01/11 09:00:27;;;;;;;18.88;12.15;;;4.70;99.90;;;;;;5103227;28;20033;-67
2021/01/11 09:02:52;;;;;;;20.73;11.90;;;4.70;99.90;;;;;;5103312;28;20028;-67
2021/01/11 09:05:23;;;;;;;19.13;12.00;;;4.70;99.90;;;;;;5106831;28;20047;-68
2021/01/11 09:07:53;;;;;;;17.77;11.27;;;4.70;99.90;;;;;;5108611;28;20094;-67
2021/01/11 09:10:31;;;;;;;19.40;11.45;;;4.80;99.90;;;;;;5121490;28;20034;-67
2021/01/11 09:13:17;;;;;;;20.88;11.02;;;4.80;99.90;;;;;;5122576;28;20152;-66
2021/01/11 09:15:43;;;;;;;18.17;10.27;;;4.80;99.90;;;;;;5123526;28;20044;-68
2021/01/11 09:18:10;;;;;;;19.48;10.43;;;4.90;99.90;;;;;;5123390;28;20023;-67
2021/01/11 09:20:38;;;;;;;16.80;10.10;;;5.00;99.90;;;;;;5109715;28;20074;-68
2021/01/11 09:23:04;;;;;;;17.38;9.95;;;5.00;99.90;;;;;;5109067;28;20028;-69
2021/01/11 09:25:31;;;;;;;17.60;9.80;;;5.00;99.90;;;;;;5091606;28;20076;-68
2021/01/11 09:27:56;;;;;;;18.02;10.82;;;5.00;99.90;;;;;;5108791;28;20032;-68
2021/01/11 09:30:22;;;;;;;18.77;10.73;;;5.00;99.90;;;;;;5115819;28;20371;-68
2021/01/11 09:32:48;;;;;;;19.50;10.43;;;5.10;99.90;;;;;;5127774;27;20084;-68
2021/01/11 09:35:15;;;;;;;20.70;10.85;;;5.10;99.90;;;;;;5108295;28;20110;-69
2021/01/11 09:37:42;;;;;;;18.98;12.18;;;5.10;99.90;;;;;;5111404;28;20027;-70
2021/01/11 09:40:08;;;;;;;23.08;13.15;;;5.00;99.90;;;;;;5106655;28;20565;-70
2021/01/11 09:42:37;;;;;;;23.13;14.05;;;5.00;99.90;;;;;;5109066;28;20039;-67
2021/01/11 09:45:05;;;;;;;24.70;12.63;;;4.90;99.90;;;;;;5107464;28;20424;-68
2021/01/11 09:47:30;;;;;;;20.70;13.52;;;4.90;99.90;;;;;;5110352;28;20039;-67
2021/01/11 09:49:56;;;;;;;21.02;12.95;;;4.90;99.90;;;;;;5126173;27;20019;-67
2021/01/11 09:52:22;;;;;;;21.60;13.23;;;4.90;99.90;;;;;;5110995;28;20036;-69
2021/01/11 09:54:48;;;;;;;27.42;13.82;;;4.90;99.90;;;;;;5114006;27;20049;-69
2021/01/11 09:57:14;;;;;;;20.35;12.55;;;4.80;99.90;;;;;;5111271;28;20024;-68
2021/01/11 09:59:39;;;;;;;23.75;13.48;;;4.90;99.90;;;;;;5107993;27;20031;-68
2021/01/11 10:02:07;;;;;;;23.95;13.98;;;4.80;99.90;;;;;;5108426;28;20447;-68
2021/01/11 10:04:32;;;;;;;23.25;14.50;;;4.90;99.90;;;;;;5109750;28;20076;-68
2021/01/11 10:06:58;;;;;;;23.83;14.40;;;4.80;99.90;;;;;;5093156;28;20044;-68
2021/01/11 10:09:25;;;;;;;22.65;13.60;;;4.80;99.90;;;;;;5090351;28;20047;-69
2021/01/11 10:11:54;;;;;;;23.40;13.45;;;4.80;99.90;;;;;;5091827;28;20111;-67
2021/01/11 10:14:20;;;;;;;24.75;13.98;;;4.80;99.90;;;;;;5090282;28;20024;-69
2021/01/11 10:16:47;;;;;;;19.88;13.55;;;4.80;99.90;;;;;;5091768;28;20038;-70
2021/01/11 10:19:17;;;;;;;25.13;14.43;;;4.90;99.90;;;;;;5091683;28;20043;-68
2021/01/11 10:21:43;;;;;;;21.80;12.27;;;4.90;99.90;;;;;;5091233;28;20040;-69
2021/01/11 10:24:10;;;;;;;21.27;12.48;;;4.90;99.90;;;;;;5093102;28;20512;-67
2021/01/11 10:26:36;;;;;;;21.92;12.15;;;5.00;99.90;;;;;;5073932;28;20540;-68
2021/01/11 10:29:02;;;;;;;18.35;12.20;;;5.00;99.90;;;;;;5089916;28;20016;-67
2021/01/11 10:31:28;;;;;;;17.75;11.65;;;5.00;99.90;;;;;;5091938;28;20016;-67
2021/01/11 10:33:54;;;;;;;20.88;11.18;;;5.10;99.90;;;;;;5072684;28;20477;-68
2021/01/11 10:36:19;;;;;;;19.30;11.63;;;5.10;99.90;;;;;;5090530;28;20035;-70
2021/01/11 10:38:46;;;;;;;19.73;12.27;;;5.10;99.90;;;;;;5072756;28;20024;-68
2021/01/11 10:41:19;;;;;;;18.92;11.38;;;5.00;99.90;;;;;;5091700;28;20032;-68
2021/01/11 10:43:46;;;;;;;21.23;11.75;;;5.10;99.90;;;;;;5072839;28;20426;-69
2021/01/11 10:46:11;;;;;;;20.30;11.55;;;5.10;99.90;;;;;;5073256;28;20273;-67
2021/01/11 10:48:40;;;;;;;22.88;11.90;;;5.10;99.90;;;;;;5089633;28;20230;-69
2021/01/11 10:51:10;;;;;;;18.80;12.45;;;5.10;99.90;;;;;;5091660;28;20081;-66
2021/01/11 10:53:36;;;;;;;21.80;11.82;;;5.20;99.90;;;;;;5091636;28;20451;-69
2021/01/11 10:56:02;;;;;;;19.40;11.57;;;5.20;99.90;;;;;;5092225;28;20028;-67
2021/01/11 10:58:28;;;;;;;24.38;13.02;;;5.20;99.90;;;;;;5095667;28;20020;-67
2021/01/11 11:00:53;;;;;;;21.50;12.43;;;5.20;99.90;;;;;;5095065;28;20165;-65
2021/01/11 11:03:19;;;;;;;21.02;12.70;;;5.20;99.90;;;;;;5091939;28;20407;-67
2021/01/11 11:05:44;;;;;;;18.90;11.95;;;5.20;99.90;;;;;;5096737;28;20032;-67
2021/01/11 11:08:10;;;;;;;19.77;11.73;;;5.30;99.90;;;;;;5110230;28;20055;-68
2021/01/11 11:10:35;;;;;;;16.40;11.45;;;5.40;99.90;;;;;;5094440;28;20012;-67
2021/01/11 11:13:04;;;;;;;18.77;11.88;;;5.30;99.90;;;;;;5090838;28;20024;-68
2021/01/11 11:15:30;;;;;;;18.58;11.35;;;5.30;99.90;;;;;;5090486;28;20024;-67
2021/01/11 11:17:55;;;;;;;18.13;11.93;;;5.20;99.90;;;;;;5090316;28;20089;-67
2021/01/11 11:20:21;;;;;;;19.77;12.38;;;5.30;99.90;;;;;;5089272;28;20499;-67
2021/01/11 11:22:46;;;;;;;17.63;11.85;;;5.30;99.90;;;;;;5090041;28;20052;-67
2021/01/11 11:25:12;;;;;;;21.30;12.35;;;5.30;99.90;;;;;;5090895;28;20016;-67
2021/01/11 11:27:38;;;;;;;21.20;12.27;;;5.30;99.90;;;;;;5089928;28;20465;-68
2021/01/11 11:30:06;;;;;;;20.42;12.23;;;5.30;99.90;;;;;;5089809;28;20027;-70
2021/01/11 11:32:34;;;;;;;17.52;11.57;;;5.30;99.90;;;;;;5087399;28;20053;-68
2021/01/11 11:35:00;;;;;;;20.67;11.57;;;5.30;99.90;;;;;;5089501;28;20028;-67
2021/01/11 11:37:26;;;;;;;21.15;12.18;;;5.30;99.90;;;;;;5089635;28;20043;-69
2021/01/11 11:39:52;;;;;;;22.98;12.40;;;5.30;99.90;;;;;;5108937;28;20030;-69
2021/01/11 11:42:18;;;;;;;21.35;13.45;;;5.30;99.90;;;;;;5099122;28;20012;-68
2021/01/11 11:44:43;;;;;;;22.13;13.13;;;5.30;99.90;;;;;;5088293;28;20504;-69
2021/01/11 11:47:09;;;;;;;25.10;12.88;;;5.20;99.90;;;;;;5099102;28;20034;-69
2021/01/11 11:49:34;;;;;;;23.33;14.10;;;5.30;99.90;;;;;;5108298;28;20035;-67
2021/01/11 11:52:00;;;;;;;24.52;14.05;;;5.20;99.90;;;;;;5094860;28;20023;-69
2021/01/11 11:54:25;;;;;;;21.52;12.85;;;5.30;99.90;;;;;;5097169;28;20031;-66
2021/01/11 11:56:51;;;;;;;21.10;14.13;;;5.30;99.90;;;;;;5075141;28;20028;-69
2021/01/11 11:59:18;;;;;;;23.40;13.10;;;5.30;99.90;;;;;;5085605;28;20347;-67
2021/01/11 12:01:44;;;;;;;19.98;12.63;;;5.40;99.90;;;;;;5067751;28;20020;-69
2021/01/11 12:04:09;;;;;;;18.00;11.43;;;5.40;99.90;;;;;;5089177;28;20024;-68
2021/01/11 12:06:44;;;;;;;23.35;12.77;;;5.40;99.90;;;;;;5103763;27;20408;-67
2021/01/11 12:09:11;;;;;;;24.02;12.77;;;5.40;99.90;;;;;;5119718;27;20046;-67
2021/01/11 12:11:44;;;;;;;19.75;11.55;;;5.40;99.90;;;;;;5109187;27;20022;-68
2021/01/11 12:14:10;;;;;;;23.63;13.02;;;5.50;99.90;;;;;;5109056;28;20032;-68
2021/01/11 12:16:35;;;;;;;19.27;12.85;;;5.50;99.90;;;;;;5109595;28;20027;-68
2021/01/11 12:19:02;;;;;;;23.23;12.60;;;5.50;99.90;;;;;;5108014;28;20076;-68
2021/01/11 12:21:31;;;;;;;20.25;12.40;;;5.50;99.90;;;;;;5109045;28;20024;-68
2021/01/11 12:23:57;;;;;;;20.45;12.63;;;5.50;99.90;;;;;;5109484;27;20088;-69
2021/01/11 12:26:23;;;;;;;24.52;13.02;;;5.60;99.90;;;;;;5107256;28;20500;-68
2021/01/11 12:28:48;;;;;;;21.63;12.93;;;5.60;99.90;;;;;;5109043;28;20039;-68
2021/01/11 12:31:14;;;;;;;19.35;11.52;;;5.60;99.90;;;;;;5110727;27;20051;-68
2021/01/11 12:33:39;;;;;;;23.35;12.27;;;5.60;99.90;;;;;;5111278;27;20095;-68
2021/01/11 12:36:05;;;;;;;17.45;11.30;;;5.50;99.90;;;;;;5107407;28;20032;-68
2021/01/11 12:38:32;;;;;;;24.33;12.45;;;5.50;99.90;;;;;;5117767;27;20080;-68
2021/01/11 12:40:57;;;;;;;19.70;12.00;;;5.50;99.90;;;;;;5116028;27;20024;-67
2021/01/11 12:43:23;;;;;;;22.17;13.35;;;5.60;99.90;;;;;;5108489;28;20072;-66